South Ashburnham, Massachusetts
Current Conditions -  °F | °C
As of 3:52 PM on Wednesday 26 Nov 2014 (Local Time) from KAFN Reporting Station
Heavy Snow Heavy Snow  
Wind Chill: 24°   Ceiling: NA
Heat Index: 31°   Visibility: 0.25mi
Dew Point: 30°   Wind: 7mph
Humidity: 96%   Direction: NA
Pressure: 29.95"   Gusts: NA
Location:  42.659°N, 71.9245°W
Report Text: KAFN 262052Z AUTO VRB06KT 1/4SM +SN FZFG M01/M01 A2995 RMK AO2 SLP157 P0007 60036 T10061011 58034 $
Loading
Personal Weather Stations






























Interactive Weather Map New forecast layout! Learn more

10-Day Weather Forecast

Advertisements
Track Severe Weather on mobile